sensor_id;sensor_type;location;lat;lon;timestamp;pressure;altitude;pressure_sealevel;temperature;humidity
47366;BME280;33105;47.964;7.982;2022-07-24T00:01:23;97016.47;;;19.13;70.56
47366;BME280;33105;47.964;7.982;2022-07-24T00:04:25;97011.72;;;19.18;70.79
47366;BME280;33105;47.964;7.982;2022-07-24T00:07:27;97014.44;;;19.04;70.98
47366;BME280;33105;47.964;7.982;2022-07-24T00:10:28;97013.81;;;19.13;71.37
47366;BME280;33105;47.964;7.982;2022-07-24T00:13:30;97017.31;;;19.01;71.45
47366;BME280;33105;47.964;7.982;2022-07-24T00:16:31;97021.34;;;18.94;71.58
47366;BME280;33105;47.964;7.982;2022-07-24T00:19:32;97013.41;;;19.06;71.58
47366;BME280;33105;47.964;7.982;2022-07-24T00:22:34;97003.88;;;19.04;71.46
47366;BME280;33105;47.964;7.982;2022-07-24T00:25:35;97010.31;;;19.00;71.79
47366;BME280;33105;47.964;7.982;2022-07-24T00:28:36;97006.66;;;19.02;71.83
47366;BME280;33105;47.964;7.982;2022-07-24T00:31:37;97001.03;;;19.07;71.46
47366;BME280;33105;47.964;7.982;2022-07-24T00:34:38;97004.50;;;18.95;72.54
47366;BME280;33105;47.964;7.982;2022-07-24T00:37:40;96997.53;;;18.94;71.96
47366;BME280;33105;47.964;7.982;2022-07-24T00:40:41;96999.75;;;18.87;72.49
47366;BME280;33105;47.964;7.982;2022-07-24T00:44:19;97002.59;;;18.84;72.19
47366;BME280;33105;47.964;7.982;2022-07-24T00:47:19;97004.28;;;18.85;71.81
47366;BME280;33105;47.964;7.982;2022-07-24T00:50:21;97000.91;;;18.83;72.46
47366;BME280;33105;47.964;7.982;2022-07-24T00:53:22;97000.25;;;18.79;72.36
47366;BME280;33105;47.964;7.982;2022-07-24T00:56:24;96995.63;;;18.83;72.22
47366;BME280;33105;47.964;7.982;2022-07-24T00:59:25;97002.34;;;18.74;72.57
47366;BME280;33105;47.964;7.982;2022-07-24T01:02:27;96998.72;;;18.75;72.91
47366;BME280;33105;47.964;7.982;2022-07-24T01:05:28;97003.78;;;18.80;72.59
47366;BME280;33105;47.964;7.982;2022-07-24T01:08:29;97000.66;;;18.73;72.95
47366;BME280;33105;47.964;7.982;2022-07-24T01:11:30;96999.25;;;18.67;73.17
47366;BME280;33105;47.964;7.982;2022-07-24T01:14:32;97000.41;;;18.63;73.50
47366;BME280;33105;47.964;7.982;2022-07-24T01:17:35;96994.28;;;18.63;73.24
47366;BME280;33105;47.964;7.982;2022-07-24T01:20:37;97001.25;;;18.64;73.22
47366;BME280;33105;47.964;7.982;2022-07-24T01:23:39;96995.56;;;18.70;73.05
47366;BME280;33105;47.964;7.982;2022-07-24T01:26:41;97006.97;;;18.58;73.68
47366;BME280;33105;47.964;7.982;2022-07-24T01:29:43;97007.91;;;18.57;74.12
47366;BME280;33105;47.964;7.982;2022-07-24T01:32:44;97006.41;;;18.53;74.56
47366;BME280;33105;47.964;7.982;2022-07-24T01:35:46;96998.28;;;18.56;73.86
47366;BME280;33105;47.964;7.982;2022-07-24T01:38:47;96997.53;;;18.54;74.03
47366;BME280;33105;47.964;7.982;2022-07-24T01:41:49;96987.59;;;18.44;73.95
47366;BME280;33105;47.964;7.982;2022-07-24T01:44:50;96990.22;;;18.44;74.23
47366;BME280;33105;47.964;7.982;2022-07-24T01:47:51;96995.94;;;18.51;74.13
47366;BME280;33105;47.964;7.982;2022-07-24T01:50:52;97002.28;;;18.49;74.64
47366;BME280;33105;47.964;7.982;2022-07-24T01:53:54;96997.84;;;18.49;74.72
47366;BME280;33105;47.964;7.982;2022-07-24T01:56:55;96998.91;;;18.46;73.90
47366;BME280;33105;47.964;7.982;2022-07-24T01:59:57;96992.00;;;18.44;73.96
47366;BME280;33105;47.964;7.982;2022-07-24T02:02:59;96990.63;;;18.38;74.06
47366;BME280;33105;47.964;7.982;2022-07-24T02:06:00;96992.72;;;18.33;74.19
47366;BME280;33105;47.964;7.982;2022-07-24T02:09:02;96991.03;;;18.32;74.65
47366;BME280;33105;47.964;7.982;2022-07-24T02:12:03;96987.63;;;18.30;74.70
47366;BME280;33105;47.964;7.982;2022-07-24T02:15:05;96988.03;;;18.24;74.75
47366;BME280;33105;47.964;7.982;2022-07-24T02:18:06;96977.88;;;18.18;75.29
47366;BME280;33105;47.964;7.982;2022-07-24T02:21:07;96978.94;;;18.15;75.55
47366;BME280;33105;47.964;7.982;2022-07-24T02:24:09;96972.78;;;18.15;75.66
47366;BME280;33105;47.964;7.982;2022-07-24T02:27:10;96980.38;;;18.07;76.12
47366;BME280;33105;47.964;7.982;2022-07-24T02:30:16;96979.13;;;18.12;75.45
47366;BME280;33105;47.964;7.982;2022-07-24T02:33:18;96982.59;;;18.13;75.54
47366;BME280;33105;47.964;7.982;2022-07-24T02:36:19;96985.22;;;18.13;75.56
47366;BME280;33105;47.964;7.982;2022-07-24T02:39:20;96983.94;;;18.05;75.45
47366;BME280;33105;47.964;7.982;2022-07-24T02:42:21;96982.72;;;18.11;76.04
47366;BME280;33105;47.964;7.982;2022-07-24T02:45:22;96982.50;;;18.14;75.59
47366;BME280;33105;47.964;7.982;2022-07-24T02:48:24;96983.94;;;18.05;76.24
47366;BME280;33105;47.964;7.982;2022-07-24T02:51:25;96990.88;;;17.94;76.27
47366;BME280;33105;47.964;7.982;2022-07-24T02:54:26;96995.69;;;17.87;76.79
47366;BME280;33105;47.964;7.982;2022-07-24T02:57:27;96993.81;;;17.89;76.44
47366;BME280;33105;47.964;7.982;2022-07-24T03:00:29;97000.75;;;17.90;76.95
47366;BME280;33105;47.964;7.982;2022-07-24T03:03:30;96995.09;;;17.96;76.87
47366;BME280;33105;47.964;7.982;2022-07-24T03:06:32;96985.50;;;17.95;76.36
47366;BME280;33105;47.964;7.982;2022-07-24T03:09:33;96985.69;;;17.92;76.57
47366;BME280;33105;47.964;7.982;2022-07-24T03:12:34;96986.63;;;17.91;76.34
47366;BME280;33105;47.964;7.982;2022-07-24T03:15:36;96990.97;;;17.92;76.66
47366;BME280;33105;47.964;7.982;2022-07-24T03:18:37;96991.16;;;17.89;76.29
47366;BME280;33105;47.964;7.982;2022-07-24T03:21:38;96987.97;;;17.84;76.72
47366;BME280;33105;47.964;7.982;2022-07-24T03:24:39;96995.03;;;17.83;77.05
47366;BME280;33105;47.964;7.982;2022-07-24T03:27:41;96996.91;;;17.81;76.79
47366;BME280;33105;47.964;7.982;2022-07-24T03:30:42;97001.53;;;17.78;77.10
47366;BME280;33105;47.964;7.982;2022-07-24T03:33:43;96995.97;;;17.68;77.63
47366;BME280;33105;47.964;7.982;2022-07-24T03:36:45;96995.88;;;17.70;77.26
47366;BME280;33105;47.964;7.982;2022-07-24T03:39:46;96995.88;;;17.70;77.39
47366;BME280;33105;47.964;7.982;2022-07-24T03:42:47;96995.13;;;17.68;77.26
47366;BME280;33105;47.964;7.982;2022-07-24T03:45:48;96992.19;;;17.72;77.49
47366;BME280;33105;47.964;7.982;2022-07-24T03:48:49;96995.41;;;17.63;78.07
47366;BME280;33105;47.964;7.982;2022-07-24T03:51:51;96997.75;;;17.68;77.30
47366;BME280;33105;47.964;7.982;2022-07-24T03:54:52;96990.59;;;17.70;77.39
47366;BME280;33105;47.964;7.982;2022-07-24T03:57:53;96997.22;;;17.62;77.42
47366;BME280;33105;47.964;7.982;2022-07-24T04:00:54;96999.69;;;17.51;78.00
47366;BME280;33105;47.964;7.982;2022-07-24T04:03:56;96999.59;;;17.53;78.37
47366;BME280;33105;47.964;7.982;2022-07-24T04:06:59;97011.44;;;17.60;78.24
47366;BME280;33105;47.964;7.982;2022-07-24T04:10:00;97013.97;;;17.61;78.38
47366;BME280;33105;47.964;7.982;2022-07-24T04:13:01;97001.81;;;17.59;78.68
47366;BME280;33105;47.964;7.982;2022-07-24T04:16:02;97007.31;;;17.56;78.56
47366;BME280;33105;47.964;7.982;2022-07-24T04:19:04;97018.41;;;17.61;79.01
47366;BME280;33105;47.964;7.982;2022-07-24T04:22:05;97015.13;;;17.57;79.15
47366;BME280;33105;47.964;7.982;2022-07-24T04:25:06;97019.44;;;17.58;79.32
47366;BME280;33105;47.964;7.982;2022-07-24T04:28:09;97012.38;;;17.59;78.63
47366;BME280;33105;47.964;7.982;2022-07-24T04:31:10;97018.13;;;17.66;79.29
47366;BME280;33105;47.964;7.982;2022-07-24T04:34:11;97013.03;;;17.62;79.43
47366;BME280;33105;47.964;7.982;2022-07-24T04:37:12;97015.88;;;17.59;79.20
47366;BME280;33105;47.964;7.982;2022-07-24T04:40:14;97017.56;;;17.60;79.66
47366;BME280;33105;47.964;7.982;2022-07-24T04:43:15;97017.47;;;17.62;79.75
47366;BME280;33105;47.964;7.982;2022-07-24T04:46:17;97013.88;;;17.63;79.20
47366;BME280;33105;47.964;7.982;2022-07-24T04:49:19;97014.56;;;17.67;78.76
47366;BME280;33105;47.964;7.982;2022-07-24T04:52:20;97016.59;;;17.61;79.32
47366;BME280;33105;47.964;7.982;2022-07-24T04:55:21;97013.59;;;17.68;79.41
47366;BME280;33105;47.964;7.982;2022-07-24T04:58:22;97025.88;;;17.69;79.28
47366;BME280;33105;47.964;7.982;2022-07-24T05:01:23;97029.53;;;17.66;79.19
47366;BME280;33105;47.964;7.982;2022-07-24T05:04:25;97022.28;;;17.70;79.26
47366;BME280;33105;47.964;7.982;2022-07-24T05:07:26;97026.41;;;17.74;79.86
47366;BME280;33105;47.964;7.982;2022-07-24T05:10:27;97024.19;;;17.82;79.94
47366;BME280;33105;47.964;7.982;2022-07-24T05:13:28;97019.44;;;17.87;80.57
47366;BME280;33105;47.964;7.982;2022-07-24T05:16:30;97025.50;;;17.89;79.17
47366;BME280;33105;47.964;7.982;2022-07-24T05:19:31;97026.41;;;18.02;78.96
47366;BME280;33105;47.964;7.982;2022-07-24T05:22:32;97021.66;;;18.08;79.06
47366;BME280;33105;47.964;7.982;2022-07-24T05:25:33;97025.22;;;18.21;79.09
47366;BME280;33105;47.964;7.982;2022-07-24T05:28:35;97022.28;;;18.25;77.91
47366;BME280;33105;47.964;7.982;2022-07-24T05:31:36;97019.53;;;18.27;77.88
47366;BME280;33105;47.964;7.982;2022-07-24T05:34:37;97029.13;;;18.42;78.01
47366;BME280;33105;47.964;7.982;2022-07-24T05:37:38;97022.22;;;18.67;76.28
47366;BME280;33105;47.964;7.982;2022-07-24T05:40:40;97021.97;;;18.84;75.05
47366;BME280;33105;47.964;7.982;2022-07-24T05:43:41;97015.72;;;18.98;76.84
47366;BME280;33105;47.964;7.982;2022-07-24T05:46:42;97018.47;;;18.97;78.04
47366;BME280;33105;47.964;7.982;2022-07-24T05:49:44;97020.34;;;18.82;77.34
47366;BME280;33105;47.964;7.982;2022-07-24T05:52:45;97012.97;;;18.87;78.13
47366;BME280;33105;47.964;7.982;2022-07-24T05:55:46;97025.88;;;18.92;78.59
47366;BME280;33105;47.964;7.982;2022-07-24T05:58:47;97022.16;;;18.81;78.96
47366;BME280;33105;47.964;7.982;2022-07-24T06:01:49;97021.88;;;18.99;77.30
47366;BME280;33105;47.964;7.982;2022-07-24T06:04:50;97015.00;;;19.35;76.81
47366;BME280;33105;47.964;7.982;2022-07-24T06:07:51;97010.44;;;19.37;76.09
47366;BME280;33105;47.964;7.982;2022-07-24T06:10:52;97017.00;;;19.31;76.19
47366;BME280;33105;47.964;7.982;2022-07-24T06:13:53;97014.47;;;19.29;77.10
47366;BME280;33105;47.964;7.982;2022-07-24T06:16:55;97008.13;;;19.19;77.17
47366;BME280;33105;47.964;7.982;2022-07-24T06:19:56;97006.84;;;19.38;75.90
47366;BME280;33105;47.964;7.982;2022-07-24T06:23:00;97005.97;;;19.76;75.21
47366;BME280;33105;47.964;7.982;2022-07-24T06:26:02;97003.63;;;20.21;73.42
47366;BME280;33105;47.964;7.982;2022-07-24T06:29:03;97006.84;;;20.37;73.56
47366;BME280;33105;47.964;7.982;2022-07-24T06:32:04;97004.94;;;20.63;72.06
47366;BME280;33105;47.964;7.982;2022-07-24T06:35:06;96996.22;;;20.85;67.46
47366;BME280;33105;47.964;7.982;2022-07-24T06:38:07;96996.28;;;21.30;70.14
47366;BME280;33105;47.964;7.982;2022-07-24T06:41:10;96982.31;;;21.51;66.91
47366;BME280;33105;47.964;7.982;2022-07-24T06:44:11;96977.94;;;21.39;68.37
47366;BME280;33105;47.964;7.982;2022-07-24T06:47:12;96979.19;;;21.46;68.42
47366;BME280;33105;47.964;7.982;2022-07-24T06:50:14;96974.97;;;21.54;68.61
47366;BME280;33105;47.964;7.982;2022-07-24T06:53:15;96978.09;;;21.71;67.69
47366;BME280;33105;47.964;7.982;2022-07-24T06:56:17;96976.28;;;21.60;68.14
47366;BME280;33105;47.964;7.982;2022-07-24T06:59:18;96980.63;;;21.50;67.84
47366;BME280;33105;47.964;7.982;2022-07-24T07:02:20;96978.06;;;21.82;67.45
47366;BME280;33105;47.964;7.982;2022-07-24T07:05:21;96972.16;;;21.67;68.19
47366;BME280;33105;47.964;7.982;2022-07-24T07:08:24;96971.66;;;21.96;67.75
47366;BME280;33105;47.964;7.982;2022-07-24T07:11:26;96973.53;;;22.16;66.25
47366;BME280;33105;47.964;7.982;2022-07-24T07:14:27;96975.00;;;22.53;62.47
47366;BME280;33105;47.964;7.982;2022-07-24T07:17:28;96965.47;;;22.92;61.92
47366;BME280;33105;47.964;7.982;2022-07-24T07:20:30;96961.34;;;23.20;62.60
47366;BME280;33105;47.964;7.982;2022-07-24T07:23:31;96962.09;;;23.32;64.02
47366;BME280;33105;47.964;7.982;2022-07-24T07:26:32;96963.41;;;23.17;55.76
47366;BME280;33105;47.964;7.982;2022-07-24T07:29:34;96967.34;;;23.44;59.85
47366;BME280;33105;47.964;7.982;2022-07-24T07:32:35;96959.09;;;23.47;58.54
47366;BME280;33105;47.964;7.982;2022-07-24T07:35:36;96957.69;;;23.52;55.00
47366;BME280;33105;47.964;7.982;2022-07-24T07:38:38;96966.34;;;23.75;56.29
47366;BME280;33105;47.964;7.982;2022-07-24T07:41:39;96963.91;;;23.62;54.94
47366;BME280;33105;47.964;7.982;2022-07-24T07:44:41;96954.59;;;23.47;56.93
47366;BME280;33105;47.964;7.982;2022-07-24T07:47:45;96947.47;;;23.88;58.34
47366;BME280;33105;47.964;7.982;2022-07-24T07:50:46;96954.25;;;24.21;55.42
47366;BME280;33105;47.964;7.982;2022-07-24T07:53:48;96955.53;;;24.27;53.33
47366;BME280;33105;47.964;7.982;2022-07-24T07:56:50;96945.72;;;24.67;53.95
47366;BME280;33105;47.964;7.982;2022-07-24T07:59:51;96951.22;;;24.55;52.74
47366;BME280;33105;47.964;7.982;2022-07-24T08:02:52;96943.59;;;24.80;55.28
47366;BME280;33105;47.964;7.982;2022-07-24T08:05:53;96942.00;;;25.06;53.70
47366;BME280;33105;47.964;7.982;2022-07-24T08:08:55;96944.94;;;25.13;51.77
47366;BME280;33105;47.964;7.982;2022-07-24T08:11:56;96940.97;;;25.27;50.00
47366;BME280;33105;47.964;7.982;2022-07-24T08:14:58;96942.44;;;25.21;50.90
47366;BME280;33105;47.964;7.982;2022-07-24T08:17:59;96940.59;;;25.02;47.43
47366;BME280;33105;47.964;7.982;2022-07-24T08:21:00;96936.66;;;25.54;49.57
47366;BME280;33105;47.964;7.982;2022-07-24T08:24:02;96938.06;;;25.58;49.03
47366;BME280;33105;47.964;7.982;2022-07-24T08:27:03;96934.28;;;25.78;48.04
47366;BME280;33105;47.964;7.982;2022-07-24T08:30:05;96928.66;;;25.81;47.60
47366;BME280;33105;47.964;7.982;2022-07-24T08:33:06;96929.25;;;26.03;48.24
47366;BME280;33105;47.964;7.982;2022-07-24T08:36:08;96926.44;;;26.04;48.46
47366;BME280;33105;47.964;7.982;2022-07-24T08:39:09;96926.81;;;26.45;48.63
47366;BME280;33105;47.964;7.982;2022-07-24T08:42:10;96926.06;;;26.71;47.66
47366;BME280;33105;47.964;7.982;2022-07-24T08:45:12;96931.66;;;26.78;46.41
47366;BME280;33105;47.964;7.982;2022-07-24T08:48:13;96929.91;;;26.68;46.05
47366;BME280;33105;47.964;7.982;2022-07-24T08:51:14;96930.09;;;26.93;46.93
47366;BME280;33105;47.964;7.982;2022-07-24T08:54:17;96926.63;;;27.01;47.20
47366;BME280;33105;47.964;7.982;2022-07-24T08:57:18;96930.16;;;26.83;45.89
47366;BME280;33105;47.964;7.982;2022-07-24T09:00:20;96924.47;;;27.04;45.08
47366;BME280;33105;47.964;7.982;2022-07-24T09:03:21;96923.25;;;26.73;45.50
47366;BME280;33105;47.964;7.982;2022-07-24T09:06:22;96925.28;;;27.23;49.89
47366;BME280;33105;47.964;7.982;2022-07-24T09:09:24;96918.84;;;27.16;44.88
47366;BME280;33105;47.964;7.982;2022-07-24T09:12:25;96926.72;;;27.43;45.43
47366;BME280;33105;47.964;7.982;2022-07-24T09:15:26;96926.22;;;27.82;44.51
47366;BME280;33105;47.964;7.982;2022-07-24T09:18:33;96925.53;;;27.80;47.23
47366;BME280;33105;47.964;7.982;2022-07-24T09:21:37;96920.34;;;27.79;43.25
47366;BME280;33105;47.964;7.982;2022-07-24T09:24:38;96923.53;;;27.82;44.65
47366;BME280;33105;47.964;7.982;2022-07-24T09:27:59;96928.16;;;27.64;42.74
47366;BME280;33105;47.964;7.982;2022-07-24T09:31:01;96924.94;;;27.94;44.43
47366;BME280;33105;47.964;7.982;2022-07-24T09:34:09;96918.63;;;28.12;43.78
47366;BME280;33105;47.964;7.982;2022-07-24T09:37:11;96905.34;;;28.10;45.23
47366;BME280;33105;47.964;7.982;2022-07-24T09:40:15;96914.63;;;28.41;45.79
47366;BME280;33105;47.964;7.982;2022-07-24T09:43:26;96911.94;;;28.32;42.48
47366;BME280;33105;47.964;7.982;2022-07-24T09:46:28;96905.78;;;28.65;44.09
47366;BME280;33105;47.964;7.982;2022-07-24T09:49:30;96905.25;;;28.53;43.01
47366;BME280;33105;47.964;7.982;2022-07-24T09:52:32;96904.22;;;28.87;42.11
47366;BME280;33105;47.964;7.982;2022-07-24T09:55:34;96897.03;;;28.87;42.07
47366;BME280;33105;47.964;7.982;2022-07-24T10:01:47;96895.34;;;28.37;42.57
47366;BME280;33105;47.964;7.982;2022-07-24T10:04:51;96893.34;;;28.72;43.17
47366;BME280;33105;47.964;7.982;2022-07-24T10:07:54;96890.16;;;28.68;41.15
47366;BME280;33105;47.964;7.982;2022-07-24T10:10:57;96896.19;;;28.62;40.15
47366;BME280;33105;47.964;7.982;2022-07-24T10:13:59;96903.75;;;28.50;40.37
47366;BME280;33105;47.964;7.982;2022-07-24T10:17:06;96889.13;;;28.77;43.38
47366;BME280;33105;47.964;7.982;2022-07-24T10:20:11;96887.09;;;29.04;41.45
47366;BME280;33105;47.964;7.982;2022-07-24T10:23:25;96889.16;;;28.69;40.35
47366;BME280;33105;47.964;7.982;2022-07-24T10:26:46;96888.13;;;28.87;41.84
47366;BME280;33105;47.964;7.982;2022-07-24T10:29:56;96888.28;;;28.93;39.36
47366;BME280;33105;47.964;7.982;2022-07-24T10:32:57;96879.72;;;29.14;41.47
47366;BME280;33105;47.964;7.982;2022-07-24T10:36:02;96878.38;;;29.10;41.65
47366;BME280;33105;47.964;7.982;2022-07-24T10:39:20;96884.06;;;29.24;39.54
47366;BME280;33105;47.964;7.982;2022-07-24T10:42:23;96886.81;;;28.58;41.21
47366;BME280;33105;47.964;7.982;2022-07-24T10:45:24;96883.69;;;29.27;41.85
47366;BME280;33105;47.964;7.982;2022-07-24T10:48:31;96881.00;;;29.27;38.56
47366;BME280;33105;47.964;7.982;2022-07-24T10:51:33;96879.03;;;29.21;39.14
47366;BME280;33105;47.964;7.982;2022-07-24T10:54:34;96874.63;;;29.28;38.15
47366;BME280;33105;47.964;7.982;2022-07-24T10:57:58;96864.69;;;29.36;41.95
47366;BME280;33105;47.964;7.982;2022-07-24T11:00:59;96863.03;;;29.67;38.62
47366;BME280;33105;47.964;7.982;2022-07-24T11:07:24;96852.34;;;29.58;36.88
47366;BME280;33105;47.964;7.982;2022-07-24T11:13:47;96858.09;;;29.47;39.09
47366;BME280;33105;47.964;7.982;2022-07-24T11:16:49;96846.69;;;29.45;40.45
47366;BME280;33105;47.964;7.982;2022-07-24T11:19:56;96852.63;;;29.64;37.58
47366;BME280;33105;47.964;7.982;2022-07-24T11:22:57;96845.84;;;30.07;37.64
47366;BME280;33105;47.964;7.982;2022-07-24T11:29:36;96837.53;;;30.17;36.21
47366;BME280;33105;47.964;7.982;2022-07-24T11:32:40;96833.53;;;30.13;36.57
47366;BME280;33105;47.964;7.982;2022-07-24T11:35:42;96827.03;;;30.30;39.29
47366;BME280;33105;47.964;7.982;2022-07-24T11:38:43;96824.84;;;30.49;37.23
47366;BME280;33105;47.964;7.982;2022-07-24T11:42:08;96828.13;;;30.59;35.35
47366;BME280;33105;47.964;7.982;2022-07-24T11:45:10;96826.66;;;30.33;35.93
47366;BME280;33105;47.964;7.982;2022-07-24T11:48:18;96814.94;;;30.64;37.65
47366;BME280;33105;47.964;7.982;2022-07-24T11:51:20;96817.44;;;30.51;35.12
47366;BME280;33105;47.964;7.982;2022-07-24T11:54:27;96817.69;;;30.41;37.41
47366;BME280;33105;47.964;7.982;2022-07-24T11:57:31;96816.06;;;30.32;36.35
47366;BME280;33105;47.964;7.982;2022-07-24T12:00:32;96811.66;;;30.39;35.84
47366;BME280;33105;47.964;7.982;2022-07-24T12:03:33;96809.78;;;30.39;36.25
47366;BME280;33105;47.964;7.982;2022-07-24T12:06:35;96801.06;;;30.14;36.07
47366;BME280;33105;47.964;7.982;2022-07-24T12:09:51;96791.94;;;30.38;36.83
47366;BME280;33105;47.964;7.982;2022-07-24T12:12:54;96794.59;;;30.24;36.59
47366;BME280;33105;47.964;7.982;2022-07-24T12:15:56;96785.59;;;30.54;36.02
47366;BME280;33105;47.964;7.982;2022-07-24T12:19:11;96784.59;;;30.70;34.54
47366;BME280;33105;47.964;7.982;2022-07-24T12:22:12;96787.66;;;30.82;37.83
47366;BME280;33105;47.964;7.982;2022-07-24T12:25:14;96783.75;;;30.85;38.79
47366;BME280;33105;47.964;7.982;2022-07-24T12:28:19;96782.00;;;30.92;38.08
47366;BME280;33105;47.964;7.982;2022-07-24T12:31:20;96772.75;;;30.41;34.59
47366;BME280;33105;47.964;7.982;2022-07-24T12:34:21;96763.44;;;30.29;35.43
47366;BME280;33105;47.964;7.982;2022-07-24T12:37:22;96766.38;;;30.57;37.04
47366;BME280;33105;47.964;7.982;2022-07-24T12:40:28;96764.88;;;30.85;36.04
47366;BME280;33105;47.964;7.982;2022-07-24T12:43:30;96767.38;;;30.56;35.28
47366;BME280;33105;47.964;7.982;2022-07-24T12:46:37;96758.19;;;30.80;35.54
47366;BME280;33105;47.964;7.982;2022-07-24T12:49:43;96754.88;;;30.93;34.30
47366;BME280;33105;47.964;7.982;2022-07-24T12:52:49;96749.47;;;30.64;36.06
47366;BME280;33105;47.964;7.982;2022-07-24T12:56:04;96746.91;;;31.00;34.21
47366;BME280;33105;47.964;7.982;2022-07-24T12:59:06;96745.31;;;30.91;38.29
47366;BME280;33105;47.964;7.982;2022-07-24T13:02:10;96743.88;;;31.24;35.55
47366;BME280;33105;47.964;7.982;2022-07-24T13:05:12;96732.03;;;31.04;34.06
47366;BME280;33105;47.964;7.982;2022-07-24T13:08:14;96723.19;;;31.10;37.99
47366;BME280;33105;47.964;7.982;2022-07-24T13:11:15;96720.50;;;31.10;34.92
47366;BME280;33105;47.964;7.982;2022-07-24T13:14:17;96726.81;;;31.17;34.81
47366;BME280;33105;47.964;7.982;2022-07-24T13:17:19;96722.75;;;31.43;35.92
47366;BME280;33105;47.964;7.982;2022-07-24T13:20:21;96721.25;;;31.55;33.88
47366;BME280;33105;47.964;7.982;2022-07-24T13:23:22;96713.25;;;31.47;33.13
47366;BME280;33105;47.964;7.982;2022-07-24T13:26:23;96711.94;;;30.92;34.46
47366;BME280;33105;47.964;7.982;2022-07-24T13:29:26;96704.41;;;31.53;35.04
47366;BME280;33105;47.964;7.982;2022-07-24T13:32:27;96697.31;;;31.52;33.54
47366;BME280;33105;47.964;7.982;2022-07-24T13:35:29;96697.84;;;31.62;32.72
47366;BME280;33105;47.964;7.982;2022-07-24T13:38:30;96694.38;;;31.47;33.52
47366;BME280;33105;47.964;7.982;2022-07-24T13:41:32;96697.44;;;31.08;33.93
47366;BME280;33105;47.964;7.982;2022-07-24T13:44:33;96692.44;;;31.05;34.58
47366;BME280;33105;47.964;7.982;2022-07-24T13:47:35;96685.22;;;31.27;34.87
47366;BME280;33105;47.964;7.982;2022-07-24T13:50:37;96678.69;;;31.36;35.96
47366;BME280;33105;47.964;7.982;2022-07-24T13:53:38;96677.63;;;31.37;34.69
47366;BME280;33105;47.964;7.982;2022-07-24T13:56:39;96669.28;;;31.32;35.26
47366;BME280;33105;47.964;7.982;2022-07-24T13:59:41;96675.16;;;31.35;33.75
47366;BME280;33105;47.964;7.982;2022-07-24T14:02:42;96661.53;;;31.22;33.97
47366;BME280;33105;47.964;7.982;2022-07-24T14:05:43;96656.75;;;31.60;33.31
47366;BME280;33105;47.964;7.982;2022-07-24T14:08:44;96658.69;;;31.45;36.32
47366;BME280;33105;47.964;7.982;2022-07-24T14:11:45;96652.00;;;31.84;34.10
47366;BME280;33105;47.964;7.982;2022-07-24T14:14:47;96645.69;;;31.77;33.75
47366;BME280;33105;47.964;7.982;2022-07-24T14:17:48;96641.84;;;31.93;35.16
47366;BME280;33105;47.964;7.982;2022-07-24T14:20:50;96638.34;;;31.92;34.43
47366;BME280;33105;47.964;7.982;2022-07-24T14:23:51;96623.56;;;31.88;37.37
47366;BME280;33105;47.964;7.982;2022-07-24T14:26:52;96633.28;;;32.04;32.72
47366;BME280;33105;47.964;7.982;2022-07-24T14:29:53;96623.06;;;31.99;33.17
47366;BME280;33105;47.964;7.982;2022-07-24T14:32:55;96622.13;;;31.92;35.75
47366;BME280;33105;47.964;7.982;2022-07-24T14:35:56;96613.56;;;32.10;33.87
47366;BME280;33105;47.964;7.982;2022-07-24T14:38:57;96610.97;;;31.95;34.13
47366;BME280;33105;47.964;7.982;2022-07-24T14:41:58;96611.50;;;31.84;34.93
47366;BME280;33105;47.964;7.982;2022-07-24T14:44:59;96610.22;;;31.80;35.77
47366;BME280;33105;47.964;7.982;2022-07-24T14:48:01;96600.13;;;31.89;33.43
47366;BME280;33105;47.964;7.982;2022-07-24T14:51:02;96609.59;;;31.78;33.06
47366;BME280;33105;47.964;7.982;2022-07-24T14:54:04;96603.00;;;31.87;34.34
47366;BME280;33105;47.964;7.982;2022-07-24T14:57:06;96605.25;;;32.05;32.29
47366;BME280;33105;47.964;7.982;2022-07-24T15:00:09;96598.97;;;31.98;31.94
47366;BME280;33105;47.964;7.982;2022-07-24T15:03:10;96596.00;;;31.64;33.06
47366;BME280;33105;47.964;7.982;2022-07-24T15:06:11;96589.28;;;31.82;35.80
47366;BME280;33105;47.964;7.982;2022-07-24T15:09:13;96590.88;;;31.76;34.65
47366;BME280;33105;47.964;7.982;2022-07-24T15:12:14;96579.97;;;31.84;34.84
47366;BME280;33105;47.964;7.982;2022-07-24T15:15:15;96587.59;;;31.81;33.30
47366;BME280;33105;47.964;7.982;2022-07-24T15:18:17;96578.50;;;31.82;35.33
47366;BME280;33105;47.964;7.982;2022-07-24T15:21:18;96580.75;;;32.07;33.55
47366;BME280;33105;47.964;7.982;2022-07-24T15:24:19;96576.72;;;31.68;36.01
47366;BME280;33105;47.964;7.982;2022-07-24T15:27:21;96575.94;;;31.74;34.10
47366;BME280;33105;47.964;7.982;2022-07-24T15:30:22;96573.19;;;31.67;33.05
47366;BME280;33105;47.964;7.982;2022-07-24T15:33:23;96557.47;;;31.28;33.64
47366;BME280;33105;47.964;7.982;2022-07-24T15:36:25;96555.47;;;31.36;33.09
47366;BME280;33105;47.964;7.982;2022-07-24T15:39:26;96559.13;;;31.50;33.66
47366;BME280;33105;47.964;7.982;2022-07-24T15:42:28;96552.50;;;31.46;33.23
47366;BME280;33105;47.964;7.982;2022-07-24T15:45:29;96546.81;;;31.62;32.68
47366;BME280;33105;47.964;7.982;2022-07-24T15:48:30;96547.84;;;31.40;33.25
47366;BME280;33105;47.964;7.982;2022-07-24T15:51:33;96549.00;;;31.31;34.59
47366;BME280;33105;47.964;7.982;2022-07-24T15:54:34;96539.09;;;31.38;34.83
47366;BME280;33105;47.964;7.982;2022-07-24T15:57:36;96542.97;;;31.29;35.05
47366;BME280;33105;47.964;7.982;2022-07-24T16:00:37;96553.31;;;31.47;34.05
47366;BME280;33105;47.964;7.982;2022-07-24T16:03:38;96549.16;;;31.44;32.97
47366;BME280;33105;47.964;7.982;2022-07-24T16:06:39;96530.84;;;31.18;34.14
47366;BME280;33105;47.964;7.982;2022-07-24T16:09:41;96529.50;;;31.29;34.29
47366;BME280;33105;47.964;7.982;2022-07-24T16:12:43;96524.47;;;31.47;34.04
47366;BME280;33105;47.964;7.982;2022-07-24T16:15:45;96517.84;;;31.21;34.14
47366;BME280;33105;47.964;7.982;2022-07-24T16:18:46;96511.63;;;31.28;33.92